sensor_id;sensor_type;location;lat;lon;timestamp;P1;durP1;ratioP1;P2;durP2;ratioP2
1048;SDS011;513;51.444;7.196;2023-08-08T00:02:04;5.60;;;2.50;;
1048;SDS011;513;51.444;7.196;2023-08-08T00:04:31;3.78;;;2.50;;
1048;SDS011;513;51.444;7.196;2023-08-08T00:06:58;4.53;;;2.22;;
1048;SDS011;513;51.444;7.196;2023-08-08T00:09:25;4.82;;;2.63;;
1048;SDS011;513;51.444;7.196;2023-08-08T00:11:52;4.53;;;2.55;;
1048;SDS011;513;51.444;7.196;2023-08-08T00:14:19;4.15;;;2.38;;
1048;SDS011;513;51.444;7.196;2023-08-08T00:16:47;4.43;;;2.63;;
1048;SDS011;513;51.444;7.196;2023-08-08T00:19:14;5.13;;;2.65;;
1048;SDS011;513;51.444;7.196;2023-08-08T00:21:41;5.37;;;2.23;;
1048;SDS011;513;51.444;7.196;2023-08-08T00:24:08;5.05;;;2.30;;
1048;SDS011;513;51.444;7.196;2023-08-08T00:26:35;5.00;;;2.42;;
1048;SDS011;513;51.444;7.196;2023-08-08T00:29:02;4.22;;;3.22;;
1048;SDS011;513;51.444;7.196;2023-08-08T00:31:29;5.13;;;2.45;;
1048;SDS011;513;51.444;7.196;2023-08-08T00:33:57;3.30;;;2.53;;
1048;SDS011;513;51.444;7.196;2023-08-08T00:36:24;6.93;;;2.33;;
1048;SDS011;513;51.444;7.196;2023-08-08T00:38:51;3.78;;;2.25;;
1048;SDS011;513;51.444;7.196;2023-08-08T00:41:18;5.60;;;2.20;;
1048;SDS011;513;51.444;7.196;2023-08-08T00:43:46;3.28;;;1.98;;
1048;SDS011;513;51.444;7.196;2023-08-08T00:46:20;4.70;;;2.10;;
1048;SDS011;513;51.444;7.196;2023-08-08T00:48:49;3.63;;;2.40;;
1048;SDS011;513;51.444;7.196;2023-08-08T00:51:17;4.32;;;2.25;;
1048;SDS011;513;51.444;7.196;2023-08-08T00:53:44;3.92;;;2.10;;
1048;SDS011;513;51.444;7.196;2023-08-08T00:56:13;3.03;;;2.25;;
1048;SDS011;513;51.444;7.196;2023-08-08T00:58:42;5.40;;;2.22;;
1048;SDS011;513;51.444;7.196;2023-08-08T01:01:10;4.03;;;2.20;;
1048;SDS011;513;51.444;7.196;2023-08-08T01:03:37;3.58;;;2.15;;
1048;SDS011;513;51.444;7.196;2023-08-08T01:06:05;3.92;;;2.30;;
1048;SDS011;513;51.444;7.196;2023-08-08T01:08:38;3.45;;;2.42;;
1048;SDS011;513;51.444;7.196;2023-08-08T01:11:06;3.93;;;2.43;;
1048;SDS011;513;51.444;7.196;2023-08-08T01:13:33;5.15;;;2.60;;
1048;SDS011;513;51.444;7.196;2023-08-08T01:16:00;4.18;;;2.53;;
1048;SDS011;513;51.444;7.196;2023-08-08T01:18:28;3.10;;;2.47;;
1048;SDS011;513;51.444;7.196;2023-08-08T01:20:55;4.70;;;2.63;;
1048;SDS011;513;51.444;7.196;2023-08-08T01:23:24;5.35;;;2.28;;
1048;SDS011;513;51.444;7.196;2023-08-08T01:25:54;5.15;;;2.60;;
1048;SDS011;513;51.444;7.196;2023-08-08T01:28:22;5.20;;;2.40;;
1048;SDS011;513;51.444;7.196;2023-08-08T01:30:49;5.82;;;2.30;;
1048;SDS011;513;51.444;7.196;2023-08-08T01:33:16;4.88;;;2.53;;
1048;SDS011;513;51.444;7.196;2023-08-08T01:35:44;3.95;;;2.50;;
1048;SDS011;513;51.444;7.196;2023-08-08T01:38:14;5.38;;;2.30;;
1048;SDS011;513;51.444;7.196;2023-08-08T01:40:44;5.37;;;2.60;;
1048;SDS011;513;51.444;7.196;2023-08-08T01:43:12;4.35;;;2.83;;
1048;SDS011;513;51.444;7.196;2023-08-08T01:45:41;3.95;;;2.70;;
1048;SDS011;513;51.444;7.196;2023-08-08T01:48:09;5.23;;;2.53;;
1048;SDS011;513;51.444;7.196;2023-08-08T01:50:36;5.15;;;2.80;;
1048;SDS011;513;51.444;7.196;2023-08-08T01:53:03;5.22;;;2.85;;
1048;SDS011;513;51.444;7.196;2023-08-08T01:55:30;4.63;;;2.42;;
1048;SDS011;513;51.444;7.196;2023-08-08T01:57:57;4.13;;;2.70;;
1048;SDS011;513;51.444;7.196;2023-08-08T02:00:26;4.13;;;2.60;;
1048;SDS011;513;51.444;7.196;2023-08-08T02:02:53;5.78;;;2.47;;
1048;SDS011;513;51.444;7.196;2023-08-08T02:05:20;5.20;;;2.78;;
1048;SDS011;513;51.444;7.196;2023-08-08T02:07:47;5.97;;;2.78;;
1048;SDS011;513;51.444;7.196;2023-08-08T02:10:14;3.85;;;2.78;;
1048;SDS011;513;51.444;7.196;2023-08-08T02:12:41;4.75;;;2.63;;
1048;SDS011;513;51.444;7.196;2023-08-08T02:15:08;7.72;;;2.70;;
1048;SDS011;513;51.444;7.196;2023-08-08T02:17:37;6.72;;;2.90;;
1048;SDS011;513;51.444;7.196;2023-08-08T02:20:04;5.93;;;2.42;;
1048;SDS011;513;51.444;7.196;2023-08-08T02:22:32;7.82;;;2.70;;
1048;SDS011;513;51.444;7.196;2023-08-08T02:24:59;5.57;;;3.03;;
1048;SDS011;513;51.444;7.196;2023-08-08T02:27:25;7.32;;;2.83;;
1048;SDS011;513;51.444;7.196;2023-08-08T02:29:52;6.00;;;3.00;;
1048;SDS011;513;51.444;7.196;2023-08-08T02:32:19;5.88;;;2.70;;
1048;SDS011;513;51.444;7.196;2023-08-08T02:34:48;5.57;;;2.90;;
1048;SDS011;513;51.444;7.196;2023-08-08T02:37:15;6.68;;;2.97;;
1048;SDS011;513;51.444;7.196;2023-08-08T02:39:42;7.50;;;2.80;;
1048;SDS011;513;51.444;7.196;2023-08-08T02:42:09;4.20;;;2.50;;
1048;SDS011;513;51.444;7.196;2023-08-08T02:44:36;6.45;;;3.20;;
1048;SDS011;513;51.444;7.196;2023-08-08T02:47:03;7.63;;;2.90;;
1048;SDS011;513;51.444;7.196;2023-08-08T02:49:30;5.75;;;2.72;;
1048;SDS011;513;51.444;7.196;2023-08-08T02:51:59;6.10;;;2.85;;
1048;SDS011;513;51.444;7.196;2023-08-08T02:54:26;6.47;;;2.67;;
1048;SDS011;513;51.444;7.196;2023-08-08T02:56:54;7.13;;;2.83;;
1048;SDS011;513;51.444;7.196;2023-08-08T02:59:21;6.07;;;2.90;;
1048;SDS011;513;51.444;7.196;2023-08-08T03:01:48;4.93;;;2.92;;
1048;SDS011;513;51.444;7.196;2023-08-08T03:04:15;4.85;;;2.85;;
1048;SDS011;513;51.444;7.196;2023-08-08T03:06:42;5.33;;;3.00;;
1048;SDS011;513;51.444;7.196;2023-08-08T03:09:10;7.18;;;3.03;;
1048;SDS011;513;51.444;7.196;2023-08-08T03:11:37;8.40;;;3.00;;
1048;SDS011;513;51.444;7.196;2023-08-08T03:14:06;4.85;;;3.00;;
1048;SDS011;513;51.444;7.196;2023-08-08T03:16:33;6.15;;;3.40;;
1048;SDS011;513;51.444;7.196;2023-08-08T03:19:00;6.30;;;3.00;;
1048;SDS011;513;51.444;7.196;2023-08-08T03:21:27;9.40;;;3.50;;
1048;SDS011;513;51.444;7.196;2023-08-08T03:23:54;8.00;;;3.13;;
1048;SDS011;513;51.444;7.196;2023-08-08T03:26:23;7.95;;;3.42;;
1048;SDS011;513;51.444;7.196;2023-08-08T03:28:50;6.95;;;3.42;;
1048;SDS011;513;51.444;7.196;2023-08-08T03:31:18;7.97;;;3.30;;
1048;SDS011;513;51.444;7.196;2023-08-08T03:33:45;7.57;;;3.50;;
1048;SDS011;513;51.444;7.196;2023-08-08T03:36:12;7.38;;;3.78;;
1048;SDS011;513;51.444;7.196;2023-08-08T03:38:39;7.90;;;3.50;;
1048;SDS011;513;51.444;7.196;2023-08-08T03:41:09;6.05;;;3.60;;
1048;SDS011;513;51.444;7.196;2023-08-08T03:43:37;5.07;;;3.78;;
1048;SDS011;513;51.444;7.196;2023-08-08T03:46:04;9.43;;;4.05;;
1048;SDS011;513;51.444;7.196;2023-08-08T03:48:31;6.88;;;4.32;;
1048;SDS011;513;51.444;7.196;2023-08-08T03:50:58;7.57;;;4.20;;
1048;SDS011;513;51.444;7.196;2023-08-08T03:53:25;10.13;;;4.45;;
1048;SDS011;513;51.444;7.196;2023-08-08T03:55:52;8.98;;;4.85;;
1048;SDS011;513;51.444;7.196;2023-08-08T03:58:19;8.15;;;5.10;;
1048;SDS011;513;51.444;7.196;2023-08-08T04:00:48;13.38;;;5.50;;
1048;SDS011;513;51.444;7.196;2023-08-08T04:03:15;7.40;;;5.15;;
1048;SDS011;513;51.444;7.196;2023-08-08T04:05:43;9.47;;;5.50;;
1048;SDS011;513;51.444;7.196;2023-08-08T04:08:12;9.73;;;5.40;;
1048;SDS011;513;51.444;7.196;2023-08-08T04:10:39;10.47;;;5.70;;
1048;SDS011;513;51.444;7.196;2023-08-08T04:13:06;9.55;;;5.68;;
1048;SDS011;513;51.444;7.196;2023-08-08T04:15:33;9.13;;;6.17;;
1048;SDS011;513;51.444;7.196;2023-08-08T04:18:01;9.63;;;5.93;;
1048;SDS011;513;51.444;7.196;2023-08-08T04:20:31;13.37;;;5.63;;
1048;SDS011;513;51.444;7.196;2023-08-08T04:22:58;9.80;;;5.90;;
1048;SDS011;513;51.444;7.196;2023-08-08T04:25:25;11.63;;;6.30;;
1048;SDS011;513;51.444;7.196;2023-08-08T04:27:52;10.07;;;5.85;;
1048;SDS011;513;51.444;7.196;2023-08-08T04:30:19;10.52;;;6.00;;
1048;SDS011;513;51.444;7.196;2023-08-08T04:32:46;9.07;;;5.70;;
1048;SDS011;513;51.444;7.196;2023-08-08T04:35:15;10.55;;;6.50;;
1048;SDS011;513;51.444;7.196;2023-08-08T04:37:42;12.88;;;5.90;;
1048;SDS011;513;51.444;7.196;2023-08-08T04:40:09;13.02;;;5.97;;
1048;SDS011;513;51.444;7.196;2023-08-08T04:42:36;15.57;;;6.22;;
1048;SDS011;513;51.444;7.196;2023-08-08T04:45:04;12.52;;;6.18;;
1048;SDS011;513;51.444;7.196;2023-08-08T04:47:31;12.30;;;6.43;;
1048;SDS011;513;51.444;7.196;2023-08-08T04:49:58;13.05;;;6.60;;
1048;SDS011;513;51.444;7.196;2023-08-08T04:52:26;12.65;;;7.70;;
1048;SDS011;513;51.444;7.196;2023-08-08T04:54:53;14.98;;;7.60;;
1048;SDS011;513;51.444;7.196;2023-08-08T04:57:20;11.15;;;7.78;;
1048;SDS011;513;51.444;7.196;2023-08-08T04:59:47;14.13;;;8.15;;
1048;SDS011;513;51.444;7.196;2023-08-08T05:02:14;14.95;;;8.85;;
1048;SDS011;513;51.444;7.196;2023-08-08T05:04:41;14.98;;;8.13;;
1048;SDS011;513;51.444;7.196;2023-08-08T05:07:08;15.98;;;9.38;;
1048;SDS011;513;51.444;7.196;2023-08-08T05:09:37;16.73;;;8.43;;
1048;SDS011;513;51.444;7.196;2023-08-08T05:12:04;18.90;;;9.20;;
1048;SDS011;513;51.444;7.196;2023-08-08T05:14:31;17.17;;;9.50;;
1048;SDS011;513;51.444;7.196;2023-08-08T05:16:58;18.27;;;9.65;;
1048;SDS011;513;51.444;7.196;2023-08-08T05:19:25;18.67;;;10.07;;
1048;SDS011;513;51.444;7.196;2023-08-08T05:21:52;15.23;;;10.45;;
1048;SDS011;513;51.444;7.196;2023-08-08T05:24:19;17.30;;;10.60;;
1048;SDS011;513;51.444;7.196;2023-08-08T05:26:47;20.58;;;10.68;;
1048;SDS011;513;51.444;7.196;2023-08-08T05:29:14;18.45;;;11.35;;
1048;SDS011;513;51.444;7.196;2023-08-08T05:31:41;19.08;;;11.07;;
1048;SDS011;513;51.444;7.196;2023-08-08T05:34:08;18.98;;;11.48;;
1048;SDS011;513;51.444;7.196;2023-08-08T05:36:35;19.27;;;10.75;;
1048;SDS011;513;51.444;7.196;2023-08-08T05:39:02;17.15;;;10.95;;
1048;SDS011;513;51.444;7.196;2023-08-08T05:41:31;21.42;;;11.38;;
1048;SDS011;513;51.444;7.196;2023-08-08T05:44:00;21.55;;;12.05;;
1048;SDS011;513;51.444;7.196;2023-08-08T05:46:27;21.95;;;11.30;;
1048;SDS011;513;51.444;7.196;2023-08-08T05:48:54;19.17;;;12.10;;
1048;SDS011;513;51.444;7.196;2023-08-08T05:51:21;17.65;;;11.77;;
1048;SDS011;513;51.444;7.196;2023-08-08T05:53:48;19.20;;;12.73;;
1048;SDS011;513;51.444;7.196;2023-08-08T05:56:15;17.90;;;12.27;;
1048;SDS011;513;51.444;7.196;2023-08-08T05:58:42;23.38;;;13.15;;
1048;SDS011;513;51.444;7.196;2023-08-08T06:01:10;18.27;;;12.20;;
1048;SDS011;513;51.444;7.196;2023-08-08T06:03:37;21.88;;;13.18;;
1048;SDS011;513;51.444;7.196;2023-08-08T06:06:05;23.90;;;13.13;;
1048;SDS011;513;51.444;7.196;2023-08-08T06:08:32;21.77;;;12.47;;
1048;SDS011;513;51.444;7.196;2023-08-08T06:10:59;23.70;;;13.15;;
1048;SDS011;513;51.444;7.196;2023-08-08T06:13:26;21.63;;;13.27;;
1048;SDS011;513;51.444;7.196;2023-08-08T06:15:53;23.70;;;13.15;;
1048;SDS011;513;51.444;7.196;2023-08-08T06:18:21;24.58;;;13.85;;
1048;SDS011;513;51.444;7.196;2023-08-08T06:20:48;22.05;;;13.80;;
1048;SDS011;513;51.444;7.196;2023-08-08T06:23:15;24.45;;;14.93;;
1048;SDS011;513;51.444;7.196;2023-08-08T06:25:42;31.25;;;15.25;;
1048;SDS011;513;51.444;7.196;2023-08-08T06:28:09;26.02;;;13.77;;
1048;SDS011;513;51.444;7.196;2023-08-08T06:30:36;24.90;;;14.00;;
1048;SDS011;513;51.444;7.196;2023-08-08T06:33:04;23.08;;;14.25;;
1048;SDS011;513;51.444;7.196;2023-08-08T06:35:32;23.20;;;13.77;;
1048;SDS011;513;51.444;7.196;2023-08-08T06:37:59;22.70;;;13.47;;
1048;SDS011;513;51.444;7.196;2023-08-08T06:40:26;20.20;;;13.63;;
1048;SDS011;513;51.444;7.196;2023-08-08T06:42:53;22.97;;;13.30;;
1048;SDS011;513;51.444;7.196;2023-08-08T06:45:20;22.52;;;13.38;;
1048;SDS011;513;51.444;7.196;2023-08-08T06:47:47;23.90;;;13.43;;
1048;SDS011;513;51.444;7.196;2023-08-08T06:50:14;23.17;;;13.90;;
1048;SDS011;513;51.444;7.196;2023-08-08T06:52:43;22.60;;;13.77;;
1048;SDS011;513;51.444;7.196;2023-08-08T06:55:10;25.40;;;14.23;;
1048;SDS011;513;51.444;7.196;2023-08-08T06:57:37;25.40;;;13.53;;
1048;SDS011;513;51.444;7.196;2023-08-08T07:00:04;23.98;;;13.95;;
1048;SDS011;513;51.444;7.196;2023-08-08T07:02:33;23.55;;;14.52;;
1048;SDS011;513;51.444;7.196;2023-08-08T07:05:00;24.48;;;14.05;;
1048;SDS011;513;51.444;7.196;2023-08-08T07:07:28;21.13;;;13.45;;
1048;SDS011;513;51.444;7.196;2023-08-08T07:09:57;23.27;;;14.15;;
1048;SDS011;513;51.444;7.196;2023-08-08T07:12:24;23.92;;;13.45;;
1048;SDS011;513;51.444;7.196;2023-08-08T07:14:51;22.88;;;13.63;;
1048;SDS011;513;51.444;7.196;2023-08-08T07:17:18;24.13;;;14.02;;
1048;SDS011;513;51.444;7.196;2023-08-08T07:19:45;23.52;;;13.80;;
1048;SDS011;513;51.444;7.196;2023-08-08T07:22:12;22.40;;;13.10;;
1048;SDS011;513;51.444;7.196;2023-08-08T07:24:39;22.13;;;14.40;;
1048;SDS011;513;51.444;7.196;2023-08-08T07:27:07;19.25;;;12.68;;
1048;SDS011;513;51.444;7.196;2023-08-08T07:29:34;22.83;;;11.93;;
1048;SDS011;513;51.444;7.196;2023-08-08T07:32:02;21.40;;;12.20;;
1048;SDS011;513;51.444;7.196;2023-08-08T07:34:30;16.25;;;11.40;;
1048;SDS011;513;51.444;7.196;2023-08-08T07:36:57;17.88;;;11.27;;
1048;SDS011;513;51.444;7.196;2023-08-08T07:39:24;17.63;;;11.48;;
1048;SDS011;513;51.444;7.196;2023-08-08T07:41:51;18.20;;;10.88;;
1048;SDS011;513;51.444;7.196;2023-08-08T07:44:19;17.52;;;10.82;;
1048;SDS011;513;51.444;7.196;2023-08-08T07:46:47;15.55;;;10.57;;
1048;SDS011;513;51.444;7.196;2023-08-08T07:49:14;15.35;;;10.27;;
1048;SDS011;513;51.444;7.196;2023-08-08T07:51:41;16.75;;;10.38;;
1048;SDS011;513;51.444;7.196;2023-08-08T07:54:08;18.75;;;9.93;;
1048;SDS011;513;51.444;7.196;2023-08-08T07:56:35;15.55;;;9.73;;
1048;SDS011;513;51.444;7.196;2023-08-08T07:59:03;15.35;;;8.68;;
1048;SDS011;513;51.444;7.196;2023-08-08T08:01:32;15.57;;;9.05;;
1048;SDS011;513;51.444;7.196;2023-08-08T08:03:59;17.27;;;8.83;;
1048;SDS011;513;51.444;7.196;2023-08-08T08:06:27;11.20;;;7.72;;
1048;SDS011;513;51.444;7.196;2023-08-08T08:08:54;12.27;;;8.18;;
1048;SDS011;513;51.444;7.196;2023-08-08T08:11:21;13.95;;;7.97;;
1048;SDS011;513;51.444;7.196;2023-08-08T08:13:48;14.05;;;7.95;;
1048;SDS011;513;51.444;7.196;2023-08-08T08:16:15;12.95;;;8.00;;
1048;SDS011;513;51.444;7.196;2023-08-08T08:18:44;12.73;;;7.65;;
1048;SDS011;513;51.444;7.196;2023-08-08T08:21:12;12.88;;;7.55;;
1048;SDS011;513;51.444;7.196;2023-08-08T08:23:42;9.32;;;6.72;;
1048;SDS011;513;51.444;7.196;2023-08-08T08:26:09;10.77;;;6.28;;
1048;SDS011;513;51.444;7.196;2023-08-08T08:28:36;14.07;;;6.67;;
1048;SDS011;513;51.444;7.196;2023-08-08T08:31:04;10.83;;;6.43;;
1048;SDS011;513;51.444;7.196;2023-08-08T08:33:32;12.48;;;6.65;;
1048;SDS011;513;51.444;7.196;2023-08-08T08:36:00;12.10;;;6.18;;
1048;SDS011;513;51.444;7.196;2023-08-08T08:38:27;14.17;;;6.20;;
1048;SDS011;513;51.444;7.196;2023-08-08T08:40:55;11.07;;;6.05;;
1048;SDS011;513;51.444;7.196;2023-08-08T08:43:22;12.43;;;5.80;;
1048;SDS011;513;51.444;7.196;2023-08-08T08:45:52;8.98;;;5.72;;
1048;SDS011;513;51.444;7.196;2023-08-08T08:48:19;10.02;;;5.18;;
1048;SDS011;513;51.444;7.196;2023-08-08T08:50:47;8.60;;;4.67;;
1048;SDS011;513;51.444;7.196;2023-08-08T08:53:16;10.93;;;4.53;;
1048;SDS011;513;51.444;7.196;2023-08-08T08:55:43;11.60;;;4.50;;
1048;SDS011;513;51.444;7.196;2023-08-08T08:58:12;9.15;;;4.20;;
1048;SDS011;513;51.444;7.196;2023-08-08T09:00:40;8.47;;;4.10;;
1048;SDS011;513;51.444;7.196;2023-08-08T09:03:07;9.82;;;4.40;;
1048;SDS011;513;51.444;7.196;2023-08-08T09:05:34;8.95;;;4.10;;
1048;SDS011;513;51.444;7.196;2023-08-08T09:08:02;8.20;;;4.35;;
1048;SDS011;513;51.444;7.196;2023-08-08T09:10:30;7.82;;;4.13;;
1048;SDS011;513;51.444;7.196;2023-08-08T09:13:00;8.68;;;3.80;;
1048;SDS011;513;51.444;7.196;2023-08-08T09:15:30;7.90;;;3.80;;
1048;SDS011;513;51.444;7.196;2023-08-08T09:17:57;7.75;;;3.60;;
1048;SDS011;513;51.444;7.196;2023-08-08T09:20:25;10.10;;;3.67;;
1048;SDS011;513;51.444;7.196;2023-08-08T09:22:53;7.53;;;3.70;;
1048;SDS011;513;51.444;7.196;2023-08-08T09:25:20;6.93;;;3.45;;
1048;SDS011;513;51.444;7.196;2023-08-08T09:27:50;6.60;;;2.93;;
1048;SDS011;513;51.444;7.196;2023-08-08T09:30:17;6.32;;;3.25;;
1048;SDS011;513;51.444;7.196;2023-08-08T09:32:44;5.22;;;2.97;;
1048;SDS011;513;51.444;7.196;2023-08-08T09:35:11;7.40;;;3.13;;
1048;SDS011;513;51.444;7.196;2023-08-08T09:37:38;6.70;;;3.60;;
1048;SDS011;513;51.444;7.196;2023-08-08T09:40:06;8.27;;;3.50;;
1048;SDS011;513;51.444;7.196;2023-08-08T09:42:34;6.28;;;3.35;;
1048;SDS011;513;51.444;7.196;2023-08-08T09:45:04;6.13;;;3.47;;
1048;SDS011;513;51.444;7.196;2023-08-08T09:47:31;7.85;;;3.25;;
1048;SDS011;513;51.444;7.196;2023-08-08T09:49:58;7.47;;;3.20;;
1048;SDS011;513;51.444;7.196;2023-08-08T09:52:26;6.70;;;3.10;;
1048;SDS011;513;51.444;7.196;2023-08-08T09:54:54;7.13;;;3.00;;
1048;SDS011;513;51.444;7.196;2023-08-08T09:57:22;7.65;;;3.35;;
1048;SDS011;513;51.444;7.196;2023-08-08T09:59:49;6.63;;;3.33;;
1048;SDS011;513;51.444;7.196;2023-08-08T10:02:19;8.25;;;3.38;;
1048;SDS011;513;51.444;7.196;2023-08-08T10:04:46;9.93;;;3.55;;
1048;SDS011;513;51.444;7.196;2023-08-08T10:07:13;7.75;;;3.60;;
1048;SDS011;513;51.444;7.196;2023-08-08T10:09:40;7.05;;;3.47;;
1048;SDS011;513;51.444;7.196;2023-08-08T10:12:07;8.43;;;3.85;;
1048;SDS011;513;51.444;7.196;2023-08-08T10:14:35;5.88;;;3.20;;
1048;SDS011;513;51.444;7.196;2023-08-08T10:17:03;8.70;;;3.50;;
1048;SDS011;513;51.444;7.196;2023-08-08T10:19:32;8.20;;;3.23;;
1048;SDS011;513;51.444;7.196;2023-08-08T10:22:03;8.23;;;3.70;;
1048;SDS011;513;51.444;7.196;2023-08-08T10:24:32;7.63;;;3.38;;
1048;SDS011;513;51.444;7.196;2023-08-08T10:27:00;6.82;;;3.72;;
1048;SDS011;513;51.444;7.196;2023-08-08T10:29:32;10.43;;;3.53;;
1048;SDS011;513;51.444;7.196;2023-08-08T10:32:00;7.30;;;3.63;;
1048;SDS011;513;51.444;7.196;2023-08-08T10:34:37;7.30;;;3.45;;
1048;SDS011;513;51.444;7.196;2023-08-08T10:37:05;9.95;;;3.10;;
1048;SDS011;513;51.444;7.196;2023-08-08T10:39:32;6.03;;;3.20;;
1048;SDS011;513;51.444;7.196;2023-08-08T10:42:00;7.40;;;3.17;;
1048;SDS011;513;51.444;7.196;2023-08-08T10:44:27;6.55;;;3.25;;
1048;SDS011;513;51.444;7.196;2023-08-08T10:46:55;6.18;;;3.40;;
1048;SDS011;513;51.444;7.196;2023-08-08T10:49:22;7.85;;;3.28;;
1048;SDS011;513;51.444;7.196;2023-08-08T10:51:50;6.38;;;3.10;;
1048;SDS011;513;51.444;7.196;2023-08-08T10:54:18;7.90;;;3.30;;
1048;SDS011;513;51.444;7.196;2023-08-08T10:56:50;5.53;;;3.00;;
1048;SDS011;513;51.444;7.196;2023-08-08T10:59:17;6.78;;;3.30;;
1048;SDS011;513;51.444;7.196;2023-08-08T11:01:45;5.97;;;3.13;;
1048;SDS011;513;51.444;7.196;2023-08-08T11:04:14;7.43;;;3.22;;
1048;SDS011;513;51.444;7.196;2023-08-08T11:06:41;7.77;;;3.17;;
1048;SDS011;513;51.444;7.196;2023-08-08T11:09:10;8.68;;;3.17;;
1048;SDS011;513;51.444;7.196;2023-08-08T11:11:37;8.10;;;3.30;;
1048;SDS011;513;51.444;7.196;2023-08-08T11:14:11;7.75;;;3.28;;
1048;SDS011;513;51.444;7.196;2023-08-08T11:16:38;5.32;;;2.90;;
1048;SDS011;513;51.444;7.196;2023-08-08T11:19:05;7.80;;;3.08;;
1048;SDS011;513;51.444;7.196;2023-08-08T11:21:33;7.80;;;2.90;;
1048;SDS011;513;51.444;7.196;2023-08-08T11:24:01;5.75;;;2.95;;
1048;SDS011;513;51.444;7.196;2023-08-08T11:26:29;7.40;;;2.53;;
1048;SDS011;513;51.444;7.196;2023-08-08T11:28:57;6.65;;;2.78;;
1048;SDS011;513;51.444;7.196;2023-08-08T11:31:24;5.87;;;2.50;;
1048;SDS011;513;51.444;7.196;2023-08-08T11:33:52;8.00;;;3.00;;
1048;SDS011;513;51.444;7.196;2023-08-08T11:36:19;7.68;;;2.90;;
1048;SDS011;513;51.444;7.196;2023-08-08T11:38:47;6.47;;;3.00;;
1048;SDS011;513;51.444;7.196;2023-08-08T11:41:15;5.75;;;3.00;;
1048;SDS011;513;51.444;7.196;2023-08-08T11:43:44;7.40;;;3.13;;
1048;SDS011;513;51.444;7.196;2023-08-08T11:46:11;5.00;;;2.95;;
1048;SDS011;513;51.444;7.196;2023-08-08T11:48:39;7.73;;;2.87;;
1048;SDS011;513;51.444;7.196;2023-08-08T11:51:07;5.75;;;2.65;;
1048;SDS011;513;51.444;7.196;2023-08-08T11:53:34;6.70;;;3.13;;
1048;SDS011;513;51.444;7.196;2023-08-08T11:56:02;6.53;;;3.00;;
1048;SDS011;513;51.444;7.196;2023-08-08T11:58:29;6.25;;;3.10;;
1048;SDS011;513;51.444;7.196;2023-08-08T12:00:58;7.45;;;3.10;;
1048;SDS011;513;51.444;7.196;2023-08-08T12:03:25;6.60;;;3.20;;
1048;SDS011;513;51.444;7.196;2023-08-08T12:05:53;6.15;;;3.17;;
1048;SDS011;513;51.444;7.196;2023-08-08T12:08:20;5.80;;;3.00;;
1048;SDS011;513;51.444;7.196;2023-08-08T12:10:48;9.52;;;3.47;;
1048;SDS011;513;51.444;7.196;2023-08-08T12:13:19;5.43;;;3.15;;
1048;SDS011;513;51.444;7.196;2023-08-08T12:15:46;7.50;;;3.03;;
1048;SDS011;513;51.444;7.196;2023-08-08T12:18:17;10.18;;;3.25;;
1048;SDS011;513;51.444;7.196;2023-08-08T12:20:44;7.03;;;3.00;;
1048;SDS011;513;51.444;7.196;2023-08-08T12:23:13;5.47;;;2.77;;
1048;SDS011;513;51.444;7.196;2023-08-08T12:25:42;5.40;;;2.78;;
1048;SDS011;513;51.444;7.196;2023-08-08T12:28:09;8.03;;;3.40;;
1048;SDS011;513;51.444;7.196;2023-08-08T12:30:36;6.82;;;2.95;;
1048;SDS011;513;51.444;7.196;2023-08-08T12:33:03;5.00;;;2.80;;
1048;SDS011;513;51.444;7.196;2023-08-08T12:35:31;6.38;;;3.22;;
1048;SDS011;513;51.444;7.196;2023-08-08T12:37:58;8.45;;;2.90;;
1048;SDS011;513;51.444;7.196;2023-08-08T12:40:25;7.97;;;2.80;;
1048;SDS011;513;51.444;7.196;2023-08-08T12:42:53;9.50;;;3.30;;
1048;SDS011;513;51.444;7.196;2023-08-08T12:45:20;4.13;;;2.60;;
1048;SDS011;513;51.444;7.196;2023-08-08T12:47:47;6.63;;;2.65;;
1048;SDS011;513;51.444;7.196;2023-08-08T12:50:14;6.45;;;2.90;;
1048;SDS011;513;51.444;7.196;2023-08-08T12:52:43;6.03;;;2.88;;
1048;SDS011;513;51.444;7.196;2023-08-08T12:55:10;8.60;;;3.60;;
1048;SDS011;513;51.444;7.196;2023-08-08T12:57:40;10.10;;;3.13;;
1048;SDS011;513;51.444;7.196;2023-08-08T13:00:07;9.02;;;3.30;;
1048;SDS011;513;51.444;7.196;2023-08-08T13:02:34;8.68;;;3.67;;
1048;SDS011;513;51.444;7.196;2023-08-08T13:05:02;7.43;;;3.30;;
1048;SDS011;513;51.444;7.196;2023-08-08T13:07:29;6.95;;;3.20;;
1048;SDS011;513;51.444;7.196;2023-08-08T13:09:57;7.60;;;3.20;;
1048;SDS011;513;51.444;7.196;2023-08-08T13:12:24;8.07;;;2.90;;
1048;SDS011;513;51.444;7.196;2023-08-08T13:14:51;5.35;;;2.88;;
1048;SDS011;513;51.444;7.196;2023-08-08T13:17:18;6.35;;;2.80;;
1048;SDS011;513;51.444;7.196;2023-08-08T13:19:45;6.53;;;3.20;;
1048;SDS011;513;51.444;7.196;2023-08-08T13:22:12;10.25;;;3.25;;
1048;SDS011;513;51.444;7.196;2023-08-08T13:24:39;7.28;;;2.95;;
1048;SDS011;513;51.444;7.196;2023-08-08T13:27:07;4.70;;;2.70;;
1048;SDS011;513;51.444;7.196;2023-08-08T13:29:34;8.50;;;3.33;;
1048;SDS011;513;51.444;7.196;2023-08-08T13:32:01;6.03;;;3.28;;
1048;SDS011;513;51.444;7.196;2023-08-08T13:34:28;5.85;;;3.00;;
1048;SDS011;513;51.444;7.196;2023-08-08T13:36:55;5.90;;;2.83;;
1048;SDS011;513;51.444;7.196;2023-08-08T13:39:22;6.22;;;2.53;;
1048;SDS011;513;51.444;7.196;2023-08-08T13:41:49;5.13;;;2.53;;
1048;SDS011;513;51.444;7.196;2023-08-08T13:44:18;5.70;;;2.90;;
1048;SDS011;513;51.444;7.196;2023-08-08T13:46:45;7.18;;;2.55;;
1048;SDS011;513;51.444;7.196;2023-08-08T13:49:12;6.75;;;2.92;;
1048;SDS011;513;51.444;7.196;2023-08-08T13:51:39;4.15;;;2.80;;
1048;SDS011;513;51.444;7.196;2023-08-08T13:54:06;5.47;;;2.78;;
1048;SDS011;513;51.444;7.196;2023-08-08T13:56:33;6.85;;;3.08;;
1048;SDS011;513;51.444;7.196;2023-08-08T13:59:00;5.40;;;3.00;;
1048;SDS011;513;51.444;7.196;2023-08-08T14:01:28;7.07;;;3.05;;
1048;SDS011;513;51.444;7.196;2023-08-08T14:03:56;6.65;;;3.03;;
1048;SDS011;513;51.444;7.196;2023-08-08T14:06:23;5.70;;;2.90;;
1048;SDS011;513;51.444;7.196;2023-08-08T14:08:50;5.78;;;2.72;;
1048;SDS011;513;51.444;7.196;2023-08-08T14:11:18;7.93;;;3.05;;
1048;SDS011;513;51.444;7.196;2023-08-08T14:13:45;4.43;;;3.08;;
1048;SDS011;513;51.444;7.196;2023-08-08T14:16:12;4.82;;;2.65;;
1048;SDS011;513;51.444;7.196;2023-08-08T14:18:43;6.50;;;2.90;;
1048;SDS011;513;51.444;7.196;2023-08-08T14:21:10;4.28;;;2.55;;
1048;SDS011;513;51.444;7.196;2023-08-08T14:23:40;6.30;;;2.40;;
1048;SDS011;513;51.444;7.196;2023-08-08T14:26:07;4.68;;;2.47;;
1048;SDS011;513;51.444;7.196;2023-08-08T14:28:34;4.68;;;2.45;;
1048;SDS011;513;51.444;7.196;2023-08-08T14:31:01;4.85;;;2.33;;
1048;SDS011;513;51.444;7.196;2023-08-08T14:33:31;4.47;;;2.20;;
1048;SDS011;513;51.444;7.196;2023-08-08T14:35:59;5.23;;;2.30;;
1048;SDS011;513;51.444;7.196;2023-08-08T14:38:26;3.65;;;2.00;;
1048;SDS011;513;51.444;7.196;2023-08-08T14:40:53;5.43;;;2.10;;
1048;SDS011;513;51.444;7.196;2023-08-08T14:43:21;3.40;;;2.20;;
1048;SDS011;513;51.444;7.196;2023-08-08T14:45:48;4.77;;;2.37;;
1048;SDS011;513;51.444;7.196;2023-08-08T14:48:15;3.97;;;2.03;;
1048;SDS011;513;51.444;7.196;2023-08-08T14:50:42;5.18;;;2.40;;
1048;SDS011;513;51.444;7.196;2023-08-08T14:53:11;5.10;;;2.07;;
1048;SDS011;513;51.444;7.196;2023-08-08T14:55:38;3.90;;;2.00;;
1048;SDS011;513;51.444;7.196;2023-08-08T14:58:05;4.65;;;2.20;;
1048;SDS011;513;51.444;7.196;2023-08-08T15:00:32;3.35;;;2.20;;
1048;SDS011;513;51.444;7.196;2023-08-08T15:02:59;4.50;;;2.17;;
1048;SDS011;513;51.444;7.196;2023-08-08T15:05:26;4.50;;;1.98;;
1048;SDS011;513;51.444;7.196;2023-08-08T15:07:53;5.80;;;2.30;;
1048;SDS011;513;51.444;7.196;2023-08-08T15:10:21;4.17;;;1.93;;
1048;SDS011;513;51.444;7.196;2023-08-08T15:12:48;3.80;;;2.03;;
1048;SDS011;513;51.444;7.196;2023-08-08T15:15:16;3.80;;;1.90;;
1048;SDS011;513;51.444;7.196;2023-08-08T15:17:45;3.78;;;1.70;;
1048;SDS011;513;51.444;7.196;2023-08-08T15:20:12;4.03;;;1.65;;
1048;SDS011;513;51.444;7.196;2023-08-08T15:22:39;4.18;;;1.90;;
1048;SDS011;513;51.444;7.196;2023-08-08T15:25:06;3.13;;;1.80;;